createdAt,value
2023-03-22T17:08:07.973Z,24.1465
2023-03-22T17:09:09.378Z,24.1773
2023-03-22T17:10:11.080Z,24.2104
2023-03-22T17:11:12.685Z,24.2412
2023-03-22T17:12:14.326Z,24.2715
2023-03-22T17:13:15.985Z,24.3004
2023-03-22T17:14:17.638Z,24.3373
2023-03-22T17:15:19.271Z,24.3708
2023-03-22T17:16:20.938Z,24.4004
2023-03-22T17:17:22.605Z,24.4308
2023-03-22T17:18:24.205Z,24.4615
2023-03-22T17:19:25.885Z,24.4865
2023-03-22T17:20:27.498Z,24.5073
2023-03-22T17:21:29.135Z,24.5231
2023-03-22T17:22:30.794Z,24.5365
2023-03-22T17:23:32.484Z,24.5519
2023-03-22T17:24:34.097Z,24.5612
2023-03-22T17:25:35.759Z,24.5769
2023-03-22T17:26:37.405Z,24.5888
2023-03-22T17:27:39.036Z,24.6054
2023-03-22T17:28:40.694Z,24.6181
2023-03-22T17:29:42.332Z,24.6331
2023-03-22T17:30:43.981Z,24.6392
2023-03-22T17:31:53.472Z,24.6438
2023-03-22T17:32:59.603Z,24.6500
2023-03-22T17:33:48.970Z,24.6588
2023-03-22T17:34:50.604Z,24.6669
2023-03-22T17:35:52.229Z,24.6731
2023-03-22T17:36:53.904Z,24.6796
2023-03-22T17:37:56.224Z,24.6823
2023-03-22T17:39:17.939Z,24.6846
2023-03-22T17:40:20.963Z,24.6842
2023-03-22T17:41:02.499Z,24.6992
2023-03-22T17:42:02.170Z,24.7208
2023-03-22T17:43:03.830Z,24.7400
2023-03-22T17:44:05.479Z,24.7515
2023-03-22T17:45:08.121Z,24.7596
2023-03-22T17:46:38.285Z,24.7554
2023-03-22T17:48:12.141Z,24.6592
2023-03-22T17:49:13.759Z,23.9831
2023-03-22T17:50:15.400Z,23.2588
2023-03-22T17:51:17.081Z,22.6550
2023-03-22T17:52:18.727Z,22.3969
2023-03-22T17:53:43.373Z,22.3969
2023-03-22T17:54:52.565Z,22.5408
2023-03-22T17:55:30.049Z,22.7042
2023-03-22T17:57:01.030Z,22.9704
2023-03-22T17:58:05.022Z,23.2315
2023-03-22T17:58:41.332Z,23.4292
2023-03-22T17:59:30.290Z,23.6127
2023-03-22T18:00:31.918Z,23.8073
2023-03-22T18:01:33.815Z,23.9438
2023-03-22T18:02:35.241Z,24.0558
2023-03-22T18:03:36.874Z,24.1373
2023-03-22T18:04:38.518Z,24.1938
2023-03-22T18:05:40.152Z,24.2342
2023-03-22T18:06:41.775Z,24.2619
2023-03-22T18:07:43.435Z,24.2850
2023-03-22T18:08:45.119Z,24.3081
2023-03-22T18:09:46.791Z,24.3277
2023-03-22T18:10:48.395Z,24.3450
2023-03-22T18:11:50.060Z,24.3685
2023-03-22T18:12:51.773Z,24.3838
2023-03-22T18:13:59.289Z,24.3981
2023-03-22T18:14:55.005Z,24.4169
2023-03-22T18:15:56.663Z,24.4250
2023-03-22T18:16:58.318Z,24.4392
2023-03-22T18:17:59.978Z,24.4600
2023-03-22T18:19:01.612Z,24.4708
2023-03-22T18:20:14.808Z,24.4862
2023-03-22T18:21:04.900Z,24.4892
2023-03-22T18:22:06.586Z,24.4973
2023-03-22T18:23:08.241Z,24.5054
2023-03-22T18:24:09.877Z,24.5065
2023-03-22T18:25:12.085Z,24.5119
2023-03-22T18:26:27.147Z,24.5135
2023-03-22T18:27:15.874Z,24.5212
2023-03-22T18:28:16.513Z,24.5258
2023-03-22T18:29:18.142Z,24.5242
2023-03-22T18:30:19.816Z,24.5292
2023-03-22T18:31:21.508Z,24.5400
2023-03-22T18:32:30.409Z,24.5508
2023-03-22T18:33:24.745Z,24.5642
2023-03-22T18:34:26.402Z,24.5735
2023-03-22T18:35:28.108Z,24.5873
2023-03-22T18:36:29.808Z,24.5985
2023-03-22T18:37:31.416Z,24.6015
2023-03-22T18:39:13.339Z,24.6227
2023-03-22T18:40:08.052Z,24.6281
2023-03-22T18:42:48.501Z,24.6369
2023-03-22T18:43:42.205Z,24.6385
2023-03-22T18:44:42.873Z,24.6392
2023-03-22T18:45:58.531Z,24.6427
2023-03-22T18:46:46.260Z,24.6546
2023-03-22T18:47:47.865Z,24.6535
2023-03-22T18:48:49.517Z,24.6535
2023-03-22T18:49:51.188Z,24.6592
2023-03-22T18:50:57.101Z,24.6623
2023-03-22T18:52:32.779Z,24.6638
2023-03-22T18:53:57.760Z,24.6742
2023-03-22T18:55:15.067Z,24.6712
2023-03-22T18:57:02.735Z,24.6827
2023-03-22T18:58:04.376Z,24.6877
2023-03-22T18:59:05.992Z,24.6935
2023-03-22T19:00:07.680Z,24.6919
2023-03-22T19:01:09.316Z,24.6504
2023-03-22T19:02:15.969Z,24.4662
2023-03-22T19:03:12.580Z,24.4727
2023-03-22T19:04:14.259Z,24.5108
2023-03-22T19:05:15.901Z,24.5600
2023-03-22T19:06:17.556Z,24.5896
2023-03-22T19:07:35.622Z,24.6185
2023-03-22T19:08:27.164Z,24.6285
2023-03-22T19:09:22.482Z,24.6423
2023-03-22T19:10:25.166Z,24.6554
2023-03-22T19:11:25.835Z,24.6631
2023-03-22T19:12:27.429Z,24.6654
2023-03-22T19:13:29.100Z,24.6704
2023-03-22T19:15:17.488Z,24.6812
2023-03-22T19:16:34.058Z,24.6562
2023-03-22T19:17:35.713Z,24.6735
2023-03-22T19:18:37.353Z,24.6808
2023-03-22T19:19:39.353Z,24.6842
2023-03-22T19:20:40.901Z,24.6908
2023-03-22T19:21:42.320Z,24.6908
2023-03-22T19:22:43.977Z,24.6858
2023-03-22T19:23:45.620Z,24.6938
2023-03-22T19:24:47.293Z,24.6935
2023-03-22T19:25:48.921Z,24.6885
2023-03-22T19:27:01.632Z,24.6873
2023-03-22T19:27:52.204Z,24.6762
2023-03-22T19:28:53.846Z,24.6927
2023-03-22T19:29:55.500Z,24.6969
2023-03-22T19:30:57.150Z,24.6900
2023-03-22T19:31:58.843Z,24.6688
2023-03-22T19:33:24.158Z,24.6712
2023-03-22T19:34:02.103Z,24.6627
2023-03-22T19:35:03.785Z,24.6523
2023-03-22T19:36:05.444Z,24.6265
2023-03-22T19:37:07.098Z,24.6135
2023-03-22T19:38:08.706Z,24.6046
2023-03-22T19:39:12.290Z,24.5938
2023-03-22T19:41:06.142Z,24.5873
2023-03-22T19:41:33.645Z,24.5969
2023-03-22T19:43:16.958Z,24.5877
2023-03-22T19:44:18.633Z,24.5846
2023-03-22T19:45:20.273Z,24.5808
2023-03-22T19:46:21.932Z,24.5785
2023-03-22T19:47:23.614Z,24.5754
2023-03-22T19:48:25.299Z,24.5765
2023-03-22T19:49:26.901Z,24.5781
2023-03-22T19:50:28.497Z,24.5946
2023-03-22T19:51:30.150Z,24.6277
2023-03-22T19:52:31.814Z,24.6396
2023-03-22T19:54:44.935Z,24.6785
2023-03-22T19:55:36.759Z,24.6827
2023-03-22T19:56:38.398Z,24.6873
2023-03-22T19:57:40.268Z,24.6900
2023-03-22T19:58:41.742Z,24.6908
2023-03-22T19:59:55.208Z,24.7031
2023-03-22T20:00:45.921Z,24.7008
2023-03-22T20:01:47.307Z,24.7008
2023-03-22T20:02:48.380Z,24.6981
2023-03-22T20:03:49.987Z,24.6900
2023-03-22T20:04:51.646Z,24.7015
2023-03-22T20:05:53.465Z,24.6973
2023-03-22T20:06:55.460Z,24.7012
2023-03-22T20:07:56.607Z,24.7031
2023-03-22T20:08:58.245Z,24.7081
2023-03-22T20:09:59.906Z,24.7142
2023-03-22T20:11:02.292Z,24.7196
2023-03-22T20:12:03.180Z,24.7192
2023-03-22T20:13:04.936Z,24.7231
2023-03-22T20:14:06.459Z,24.7196
2023-03-22T20:15:08.151Z,24.7154
2023-03-22T20:16:09.808Z,24.7100
2023-03-22T20:17:15.243Z,24.7100
2023-03-22T20:18:13.084Z,24.7015
2023-03-22T20:19:14.746Z,24.6965
2023-03-22T20:20:16.365Z,24.6862
2023-03-22T20:21:18.012Z,24.6796
2023-03-22T20:22:19.696Z,24.6896
2023-03-22T20:23:21.342Z,24.6923
2023-03-22T20:24:22.977Z,24.6996
2023-03-22T20:25:24.659Z,24.7015
2023-03-22T20:26:26.289Z,24.7031
2023-03-22T20:27:27.916Z,24.6988
2023-03-22T20:28:29.596Z,24.6985
2023-03-22T20:29:31.211Z,24.6950
2023-03-22T20:30:32.871Z,24.6896
2023-03-22T20:31:34.514Z,24.6869
2023-03-22T20:32:36.191Z,24.6846
2023-03-22T20:33:37.874Z,24.6877
2023-03-22T20:34:39.502Z,24.6827
2023-03-22T20:35:41.319Z,24.6850
2023-03-22T20:36:42.810Z,24.6908
2023-03-22T20:37:44.459Z,24.6892
2023-03-22T20:38:46.138Z,24.6781
2023-03-22T20:39:47.733Z,24.6819
2023-03-22T20:40:49.387Z,24.6823
2023-03-22T20:41:51.072Z,24.6815
2023-03-22T20:42:52.696Z,24.6842
2023-03-22T20:43:54.337Z,24.6623
2023-03-22T20:44:55.992Z,24.5373
2023-03-22T20:45:57.640Z,24.5462
2023-03-22T20:46:59.305Z,24.5631
2023-03-22T20:48:00.955Z,24.5904
2023-03-22T20:49:02.613Z,24.6000
2023-03-22T20:50:04.215Z,24.6165
2023-03-22T20:51:05.866Z,24.6408
2023-03-22T20:52:07.507Z,24.6462
2023-03-22T20:53:09.184Z,24.6392
2023-03-22T20:54:10.842Z,24.6531
2023-03-22T20:55:12.458Z,24.6485
2023-03-22T20:56:14.141Z,24.6600
2023-03-22T20:57:15.763Z,24.6365
2023-03-22T20:58:17.446Z,24.6419
2023-03-22T20:59:19.102Z,24.6262
2023-03-22T21:00:20.743Z,24.6442
2023-03-22T21:01:22.409Z,24.6542
2023-03-22T21:02:24.101Z,24.6558
2023-03-22T21:03:25.723Z,24.6415
2023-03-22T21:04:27.413Z,24.6427
2023-03-22T21:05:29.029Z,24.6562
2023-03-22T21:06:30.645Z,24.6658
2023-03-22T21:07:32.315Z,24.6585
2023-03-22T21:08:34.006Z,24.6600
2023-03-22T21:09:35.609Z,24.6523
2023-03-22T21:10:37.348Z,24.6446
2023-03-22T21:11:38.985Z,24.5692
2023-03-22T21:12:40.623Z,24.5819
2023-03-22T21:13:42.295Z,24.6019
2023-03-22T21:14:43.981Z,24.6223
2023-03-22T21:15:45.589Z,24.6362
2023-03-22T21:16:47.823Z,24.6419
2023-03-22T21:17:49.432Z,24.6438
2023-03-22T21:18:50.523Z,24.6442
2023-03-22T21:19:52.195Z,24.6392
2023-03-22T21:20:53.939Z,24.6238
2023-03-22T21:21:59.965Z,24.6254
2023-03-22T21:22:57.138Z,24.6269
2023-03-22T21:23:58.816Z,24.6219
2023-03-22T21:25:00.477Z,24.6200
2023-03-22T21:26:02.100Z,24.6192
2023-03-22T21:27:03.737Z,24.6204
2023-03-22T21:28:05.396Z,24.6246
2023-03-22T21:29:07.070Z,24.6304
2023-03-22T21:30:08.725Z,24.6385
2023-03-22T21:31:10.496Z,24.6392
2023-03-22T21:32:11.987Z,24.6327
2023-03-22T21:33:13.635Z,24.6269
2023-03-22T21:34:15.304Z,24.6281
2023-03-22T21:35:16.943Z,24.6238
2023-03-22T21:36:18.616Z,24.6358
2023-03-22T21:37:20.216Z,24.6373
2023-03-22T21:38:21.874Z,24.6488
2023-03-22T21:39:23.520Z,24.6450
2023-03-22T21:40:25.186Z,24.6412
2023-03-22T21:41:26.826Z,24.6419
2023-03-22T21:42:28.458Z,24.6273
2023-03-22T21:43:30.108Z,24.6288
2023-03-22T21:44:31.801Z,24.6342
2023-03-22T21:45:33.422Z,24.6312
2023-03-22T21:46:35.056Z,24.6281
2023-03-22T21:47:36.716Z,24.6319
2023-03-22T21:48:38.367Z,24.6354
2023-03-22T21:49:40.010Z,24.6331
2023-03-22T21:50:41.685Z,24.6215
2023-03-22T21:51:43.336Z,24.6308
2023-03-22T21:52:45.025Z,24.6223
2023-03-22T21:53:46.610Z,24.6204
2023-03-22T21:54:48.271Z,24.6177
2023-03-22T21:55:49.958Z,24.6081
2023-03-22T21:56:51.596Z,24.5981
2023-03-22T21:57:53.341Z,24.5992
2023-03-22T21:58:54.891Z,24.6031
2023-03-22T21:59:56.548Z,24.5969
2023-03-22T22:00:58.231Z,24.6031
2023-03-22T22:01:59.843Z,24.6065
2023-03-22T22:03:01.520Z,24.5969
2023-03-22T22:04:03.142Z,24.6085
2023-03-22T22:05:04.781Z,24.6150
2023-03-22T22:06:06.612Z,24.6096
2023-03-22T22:07:08.066Z,24.6108
2023-03-22T22:08:09.720Z,24.6058
2023-03-22T22:09:11.362Z,24.6023
2023-03-22T22:10:13.032Z,24.6081
2023-03-22T22:11:14.685Z,24.6192
2023-03-22T22:12:16.549Z,24.6204
2023-03-22T22:13:18.001Z,24.6223
2023-03-22T22:14:19.654Z,24.6235
2023-03-22T22:15:21.295Z,24.6150
2023-03-22T22:16:22.987Z,24.6231
2023-03-22T22:17:24.623Z,24.6250
2023-03-22T22:18:26.236Z,24.6254
2023-03-22T22:19:27.918Z,24.6223
2023-03-22T22:20:29.559Z,24.6169
2023-03-22T22:21:31.204Z,24.6250
2023-03-22T22:22:32.862Z,24.6258
2023-03-22T22:23:34.491Z,24.6327
2023-03-22T22:24:36.163Z,24.6269
2023-03-22T22:25:37.800Z,24.6215
2023-03-22T22:26:39.462Z,24.6050
2023-03-22T22:27:41.210Z,24.5912
2023-03-22T22:28:42.732Z,24.5827
2023-03-22T22:29:44.391Z,24.5754
2023-03-22T22:30:46.024Z,24.5796
2023-03-22T22:31:47.681Z,24.5815
2023-03-22T22:32:49.336Z,24.5900
2023-03-22T22:33:51.011Z,24.5942
2023-03-22T22:34:52.641Z,24.5915
2023-03-22T22:35:54.338Z,24.5923
2023-03-22T22:36:55.943Z,24.5988
2023-03-22T22:37:57.581Z,24.5985
2023-03-22T22:38:59.205Z,24.6108
2023-03-22T22:40:00.860Z,24.6135
2023-03-22T22:41:02.538Z,24.6185
2023-03-22T22:42:04.168Z,24.6208
2023-03-22T22:43:05.824Z,24.6177
2023-03-22T22:44:07.452Z,24.6165
2023-03-22T22:45:09.128Z,24.6000
2023-03-22T22:46:10.826Z,24.6065
2023-03-22T22:47:12.536Z,24.6169
2023-03-22T22:48:14.092Z,24.6150
2023-03-22T22:49:15.743Z,24.6050
2023-03-22T22:50:17.404Z,24.6169
2023-03-22T22:51:19.071Z,24.6096
2023-03-22T22:52:20.725Z,24.6035
2023-03-22T22:53:22.348Z,24.6081
2023-03-22T22:54:23.988Z,24.6131
2023-03-22T22:55:25.651Z,24.6158
2023-03-22T22:56:27.324Z,24.6215
2023-03-22T22:57:28.966Z,24.6173
2023-03-22T22:58:30.607Z,24.6077
2023-03-22T22:59:32.262Z,24.6019
2023-03-22T23:00:33.902Z,24.6038
2023-03-22T23:01:35.534Z,24.6038
2023-03-22T23:02:37.232Z,24.6031
2023-03-22T23:03:38.834Z,24.5954
2023-03-22T23:04:40.502Z,24.6023
2023-03-22T23:05:42.427Z,24.6000
2023-03-22T23:06:43.788Z,24.6073
2023-03-22T23:07:45.471Z,24.6150
2023-03-22T23:08:47.101Z,24.6108
2023-03-22T23:09:48.765Z,24.6096
2023-03-22T23:10:50.406Z,24.6085
2023-03-22T23:11:52.089Z,24.6169
2023-03-22T23:12:53.773Z,24.6131
2023-03-22T23:13:55.383Z,24.6092
2023-03-22T23:14:57.042Z,24.6135
2023-03-22T23:15:58.701Z,24.6081
2023-03-22T23:17:00.347Z,24.6215
2023-03-22T23:18:09.771Z,24.6238
2023-03-22T23:19:03.626Z,24.6142
2023-03-22T23:20:05.309Z,24.6127
2023-03-22T23:21:06.926Z,24.6142
2023-03-22T23:22:08.594Z,24.6200
2023-03-22T23:23:10.262Z,24.6173
2023-03-22T23:24:11.905Z,24.6219
2023-03-22T23:25:13.554Z,24.6277
2023-03-22T23:26:15.207Z,24.6200
2023-03-22T23:27:16.870Z,24.6138
2023-03-22T23:28:18.566Z,24.6054
2023-03-22T23:29:20.236Z,24.6046
2023-03-22T23:30:21.832Z,24.6112
2023-03-22T23:31:23.486Z,24.6273
2023-03-22T23:32:25.167Z,24.6277
2023-03-22T23:33:26.823Z,24.6308
2023-03-22T23:34:28.491Z,24.6288
2023-03-22T23:35:30.143Z,24.6312
2023-03-22T23:36:31.778Z,24.6365
2023-03-22T23:37:33.436Z,24.6312
2023-03-22T23:38:35.111Z,24.6235
2023-03-22T23:39:36.730Z,24.6235
2023-03-22T23:40:38.425Z,24.6338
2023-03-22T23:41:40.053Z,24.6369
2023-03-22T23:42:41.698Z,24.6312
2023-03-22T23:43:43.373Z,24.6319
2023-03-22T23:44:45.015Z,24.6312
2023-03-22T23:45:46.665Z,24.6269
2023-03-22T23:46:48.341Z,24.6323
2023-03-22T23:47:49.983Z,24.6458
2023-03-22T23:48:51.627Z,24.6531
2023-03-22T23:49:53.283Z,24.6642
2023-03-22T23:50:54.933Z,24.6654
2023-03-22T23:51:56.576Z,24.6623
2023-03-22T23:52:58.248Z,24.6673
2023-03-22T23:53:59.912Z,24.6777
2023-03-22T23:55:01.548Z,24.6858
2023-03-22T23:56:03.212Z,24.6854
2023-03-22T23:57:04.861Z,24.6823
2023-03-22T23:58:06.511Z,24.6896
2023-03-22T23:59:08.208Z,24.6988
